Aérodrome :
LOGIN :

S'inscrire | Disclaimer

   EN    FR    IT 

 










Légende :    VFR   VFR Marginal   IFR   IFR Intensif   IFR Très Intensif
Visi : 
Plafond : 
>= 8 km
>= 3000ft
5 à 8 km
1000 à 3000 ft
1500m à 5 km
500 à 1000 ft
800 à 1500m
200 à 500 ft
< 800m
< 200 ft
Symboles :   Orages  Brouillard  Fortes neiges  Fortes précipitations  Vent > 20 kt
SIGMETs :   Divers  Orages  Givrage  Turbulence  Onde Orograph.  Cendres Volcan.






- Altitude de l'aérodrome : 164 ft
- Code IATA : VBY


ESSV - Visby

DERNIER METAR :
  • 231050Z 26019KT 9999 SCT030 06/02 Q0990 R21/09//91

METARs EXPIRÉS :
  • 231020Z AUTO 26019KT 9999 SCT030/// 06/02 Q0990
  • 230950Z AUTO 26020KT 9999 SCT030/// 05/02 Q0990
  • 230920Z AUTO 26019KT 9999 BKN030/// 05/01 Q0990
  • 230850Z AUTO 26021G33KT 9999 SCT031/// 05/01 Q0990
  • 230820Z AUTO 26020KT 9999 SCT032/// 05/01 Q0990

TAF TAF ESSV
Valide du 23 à 10h jusqu'au 23 à 18h UTC


230930Z 2310/2318 21020G35KT 9999 SCT030
BECMG 2314/2316 26015G25KT
PROB40 2315/2318 SHRA BKN030CB



MET'MAP, la Météo Aéronautique d'un coup d'oeil ! - Copyright ORBIFLY Décembre 2007 - Disclaimer

ORBIFLY MET'MAP TEAM :

Programmation & Développement : Alexandra Zaïnal
Sur une idée originale de : Baudouin d'Aumeries
Assistance à la programmation : Marc-Olivier Méhu
Soutien technique & logistique : Manuel Goepfert

Contact : metmap@orbifly.com




SOURCES & CREDITS :

   NOAA